Reading, Michigan
Current Conditions -  °F | °C
As of 10:55 AM on Friday 28 Nov 2014 (Local Time) from KJYM Reporting Station
Broken Clouds Broken Clouds  
Wind Chill: 17°   Ceiling: 8000
Heat Index: 25°   Visibility: 10mi
Dew Point: 15°   Wind: 7mph
Humidity: 64%   Direction: 190°S
Pressure: 30.26"   Gusts: NA
Location:  41.84°N, 84.75°W
Report Text: KJYM 281555Z AUTO 19006KT 10SM SCT022 SCT070 BKN080 M04/M10 A3026 RMK AO2 T10381097
Loading
Personal Weather Stations






























Interactive Weather Map New forecast layout! Learn more

10-Day Weather Forecast

Advertisements
Track Severe Weather on mobile